METAR AND TAF INFORMATION
METAR FOR UASP
ADDS - METARS form results

(1238 UTC 23 January 2019)
Data provider http://aviationweather.gov/metar/data/
 
METAR text: UASP 231230Z 13003MPS CAVOK M18/M20 Q1028 R21/450155 NOSIG RMK QFE759/1013
Conditions at: UASP (PAVLODAR , KZ) observed 1230 UTC 23 January 2019
Temperature: -18.0°C (-0°F)
Dewpoint: -20.0°C (-4°F) [RH = 84%]
Pressure (altimeter): 30.35 inches Hg (1028.0 mb)
Winds: from the SE (130 degrees) at 7 MPH (6 knots; 3.1 m/s)
Visibility: 6 or more miles (10+ km)
Ceiling: ceiling and visibility are OK
Clouds: unknown
Weather: no significant weather observed at this time

METAR text: UASP 231200Z 15003MPS CAVOK M17/M19 Q1028 R21/450155 NOSIG RMK QFE759/1013
Conditions at: UASP (PAVLODAR , KZ) observed 1200 UTC 23 January 2019
Temperature: -17.0°C ( 1°F)
Dewpoint: -19.0°C (-2°F) [RH = 84%]
Pressure (altimeter): 30.35 inches Hg (1028.0 mb)
Winds: from the SSE (150 degrees) at 7 MPH (6 knots; 3.1 m/s)
Visibility: 6 or more miles (10+ km)
Ceiling: ceiling and visibility are OK
Clouds: unknown
Weather: no significant weather observed at this time

Forecast for: UASP (PAVLODAR , KZ)
Text: TAF UASP 231100Z 2312/2321 16002MPS 5000 FU SCT007
Forecast period: 1200 to 2100 UTC 23 January 2019
Forecast type: FROM: standard forecast or significant change
Winds: from the SSE (160 degrees) at 5 MPH (4 knots; 2.1 m/s)
Visibility: 3 miles (5 km)
Ceiling: at least 12,000 feet AGL
Clouds: scattered clouds at 700 feet AGL
Weather: FU  (smoke)
Text: TEMPO 2312/2315 1000 -SN BR BKN002
Forecast period: 1200 to 1500 UTC 23 January 2019
Forecast type: TEMPORARY: The following changes expected for less than half the time period
Visibility: 0.62 miles (1.00 km)
Ceiling: 200 feet AGL
Clouds: broken clouds at 200 feet AGL
Weather: -SN BR  (light snow, mist)
Text: TEMPO 2315/2321 18008MPS 1000 SHSN BKN002 OVC020CB
Forecast period: 1500 to 2100 UTC 23 January 2019
Forecast type: TEMPORARY: The following changes expected for less than half the time period
Winds: from the S (180 degrees) at 18 MPH (16 knots; 8.2 m/s)
Visibility: 0.62 miles (1.00 km)
Ceiling: 200 feet AGL
Clouds: broken clouds at 200 feet AGL
overcast cloud deck at 2000 feet AGL
Weather: SHSN  (snow showers)

 AIRPORT MAP

 RUNWAY INFORMATION

 AIRPORT FREQUENCIES
Type TWR Name TWR Frequency 119.8 MHZ

 AIRPORT NEAR NAVIGATION AIDS
Type NDB Name Pavlodar Frequency 440 KHZ
Type NDB Name Pavlodar Frequency 440 KHZ



2018 Air Astana Virtual Airline